sensor_id;sensor_type;location;lat;lon;timestamp;P1;P2;P0
69350;PMS7003;57106;51.446;-2.606;2023-11-21T00:00:39;0;0;
69350;PMS7003;57106;51.446;-2.606;2023-11-21T00:03:04;0;0;
69350;PMS7003;57106;51.446;-2.606;2023-11-21T00:07:58;0;0;
69350;PMS7003;57106;51.446;-2.606;2023-11-21T00:10:20;0;0;
69350;PMS7003;57106;51.446;-2.606;2023-11-21T00:12:46;0;0;
69350;PMS7003;57106;51.446;-2.606;2023-11-21T00:15:12;0;0;
69350;PMS7003;57106;51.446;-2.606;2023-11-21T00:17:41;0;0;
69350;PMS7003;57106;51.446;-2.606;2023-11-21T00:20:08;0;0;
69350;PMS7003;57106;51.446;-2.606;2023-11-21T00:22:28;0;0;
69350;PMS7003;57106;51.446;-2.606;2023-11-21T00:24:59;0;0;
69350;PMS7003;57106;51.446;-2.606;2023-11-21T00:27:19;0;0;
69350;PMS7003;57106;51.446;-2.606;2023-11-21T00:29:44;0;0;
69350;PMS7003;57106;51.446;-2.606;2023-11-21T00:32:10;0;0;
69350;PMS7003;57106;51.446;-2.606;2023-11-21T00:34:40;0;0;
69350;PMS7003;57106;51.446;-2.606;2023-11-21T00:37:01;1;0;
69350;PMS7003;57106;51.446;-2.606;2023-11-21T00:39:26;0;0;
69350;PMS7003;57106;51.446;-2.606;2023-11-21T00:44:18;2;1;
69350;PMS7003;57106;51.446;-2.606;2023-11-21T00:49:09;0;0;
69350;PMS7003;57106;51.446;-2.606;2023-11-21T00:54:03;0;0;
69350;PMS7003;57106;51.446;-2.606;2023-11-21T00:56:25;0;0;
69350;PMS7003;57106;51.446;-2.606;2023-11-21T00:58:51;0;0;
69350;PMS7003;57106;51.446;-2.606;2023-11-21T01:01:16;0;0;
69350;PMS7003;57106;51.446;-2.606;2023-11-21T01:03:44;0;0;
69350;PMS7003;57106;51.446;-2.606;2023-11-21T01:06:07;1;0;
69350;PMS7003;57106;51.446;-2.606;2023-11-21T01:08:33;0;0;
69350;PMS7003;57106;51.446;-2.606;2023-11-21T01:11:10;0;0;
69350;PMS7003;57106;51.446;-2.606;2023-11-21T01:13:23;1;0;
69350;PMS7003;57106;51.446;-2.606;2023-11-21T01:18:14;1;0;
69350;PMS7003;57106;51.446;-2.606;2023-11-21T01:20:40;0;0;
69350;PMS7003;57106;51.446;-2.606;2023-11-21T01:23:11;1;0;
69350;PMS7003;57106;51.446;-2.606;2023-11-21T01:25:31;0;0;
69350;PMS7003;57106;51.446;-2.606;2023-11-21T01:27:56;0;0;
69350;PMS7003;57106;51.446;-2.606;2023-11-21T01:30:22;0;0;
69350;PMS7003;57106;51.446;-2.606;2023-11-21T01:32:49;0;0;
69350;PMS7003;57106;51.446;-2.606;2023-11-21T01:35:13;1;0;
69350;PMS7003;57106;51.446;-2.606;2023-11-21T01:37:39;0;0;
69350;PMS7003;57106;51.446;-2.606;2023-11-21T01:40:04;0;0;
69350;PMS7003;57106;51.446;-2.606;2023-11-21T01:42:29;1;0;
69350;PMS7003;57106;51.446;-2.606;2023-11-21T01:44:55;0;0;
69350;PMS7003;57106;51.446;-2.606;2023-11-21T01:47:20;0;0;
69350;PMS7003;57106;51.446;-2.606;2023-11-21T01:49:54;0;0;
69350;PMS7003;57106;51.446;-2.606;2023-11-21T01:52:11;0;0;
69350;PMS7003;57106;51.446;-2.606;2023-11-21T01:54:37;0;0;
69350;PMS7003;57106;51.446;-2.606;2023-11-21T01:57:03;1;0;
69350;PMS7003;57106;51.446;-2.606;2023-11-21T01:59:29;0;0;
69350;PMS7003;57106;51.446;-2.606;2023-11-21T02:01:54;0;0;
69350;PMS7003;57106;51.446;-2.606;2023-11-21T02:04:19;0;0;
69350;PMS7003;57106;51.446;-2.606;2023-11-21T02:06:45;0;0;
69350;PMS7003;57106;51.446;-2.606;2023-11-21T02:09:11;0;0;
69350;PMS7003;57106;51.446;-2.606;2023-11-21T02:11:36;0;0;
69350;PMS7003;57106;51.446;-2.606;2023-11-21T02:14:01;0;0;
69350;PMS7003;57106;51.446;-2.606;2023-11-21T02:28:35;0;0;
69350;PMS7003;57106;51.446;-2.606;2023-11-21T02:31:00;0;0;
69350;PMS7003;57106;51.446;-2.606;2023-11-21T02:33:26;0;0;
69350;PMS7003;57106;51.446;-2.606;2023-11-21T02:35:51;0;0;
69350;PMS7003;57106;51.446;-2.606;2023-11-21T02:38:18;0;0;
69350;PMS7003;57106;51.446;-2.606;2023-11-21T02:40:42;0;0;
69350;PMS7003;57106;51.446;-2.606;2023-11-21T02:43:07;0;0;
69350;PMS7003;57106;51.446;-2.606;2023-11-21T02:45:33;0;0;
69350;PMS7003;57106;51.446;-2.606;2023-11-21T02:47:59;0;0;
69350;PMS7003;57106;51.446;-2.606;2023-11-21T02:50:29;0;0;
69350;PMS7003;57106;51.446;-2.606;2023-11-21T02:52:49;1;0;
69350;PMS7003;57106;51.446;-2.606;2023-11-21T02:55:15;0;0;
69350;PMS7003;57106;51.446;-2.606;2023-11-21T02:57:40;0;0;
69350;PMS7003;57106;51.446;-2.606;2023-11-21T03:00:11;0;0;
69350;PMS7003;57106;51.446;-2.606;2023-11-21T03:02:31;1;0;
69350;PMS7003;57106;51.446;-2.606;2023-11-21T03:04:57;0;0;
69350;PMS7003;57106;51.446;-2.606;2023-11-21T03:07:22;0;0;
69350;PMS7003;57106;51.446;-2.606;2023-11-21T03:09:48;0;0;
69350;PMS7003;57106;51.446;-2.606;2023-11-21T03:12:14;0;0;
69350;PMS7003;57106;51.446;-2.606;2023-11-21T03:14:39;0;0;
69350;PMS7003;57106;51.446;-2.606;2023-11-21T03:17:05;1;0;
69350;PMS7003;57106;51.446;-2.606;2023-11-21T03:19:30;0;0;
69350;PMS7003;57106;51.446;-2.606;2023-11-21T03:21:55;0;0;
69350;PMS7003;57106;51.446;-2.606;2023-11-21T03:24:21;0;0;
69350;PMS7003;57106;51.446;-2.606;2023-11-21T03:26:46;1;1;
69350;PMS7003;57106;51.446;-2.606;2023-11-21T03:29:12;0;0;
69350;PMS7003;57106;51.446;-2.606;2023-11-21T03:31:38;1;1;
69350;PMS7003;57106;51.446;-2.606;2023-11-21T03:34:03;1;1;
69350;PMS7003;57106;51.446;-2.606;2023-11-21T03:36:29;3;1;
69350;PMS7003;57106;51.446;-2.606;2023-11-21T03:38:54;2;2;
69350;PMS7003;57106;51.446;-2.606;2023-11-21T03:41:19;2;2;
69350;PMS7003;57106;51.446;-2.606;2023-11-21T03:43:45;3;2;
69350;PMS7003;57106;51.446;-2.606;2023-11-21T03:46:10;5;3;
69350;PMS7003;57106;51.446;-2.606;2023-11-21T03:48:36;2;2;
69350;PMS7003;57106;51.446;-2.606;2023-11-21T03:51:01;4;4;
69350;PMS7003;57106;51.446;-2.606;2023-11-21T03:53:27;3;3;
69350;PMS7003;57106;51.446;-2.606;2023-11-21T03:55:52;5;5;
69350;PMS7003;57106;51.446;-2.606;2023-11-21T03:58:18;5;3;
69350;PMS7003;57106;51.446;-2.606;2023-11-21T04:00:44;5;5;
69350;PMS7003;57106;51.446;-2.606;2023-11-21T04:03:09;4;4;
69350;PMS7003;57106;51.446;-2.606;2023-11-21T04:05:35;5;5;
69350;PMS7003;57106;51.446;-2.606;2023-11-21T04:08:01;7;7;
69350;PMS7003;57106;51.446;-2.606;2023-11-21T04:10:26;5;5;
69350;PMS7003;57106;51.446;-2.606;2023-11-21T04:12:52;5;4;
69350;PMS7003;57106;51.446;-2.606;2023-11-21T04:15:17;6;6;
69350;PMS7003;57106;51.446;-2.606;2023-11-21T04:17:43;7;7;
69350;PMS7003;57106;51.446;-2.606;2023-11-21T04:20:08;6;6;
69350;PMS7003;57106;51.446;-2.606;2023-11-21T04:22:35;8;7;
69350;PMS7003;57106;51.446;-2.606;2023-11-21T04:25:00;5;5;
69350;PMS7003;57106;51.446;-2.606;2023-11-21T04:27:25;6;6;
69350;PMS7003;57106;51.446;-2.606;2023-11-21T04:29:51;5;5;
69350;PMS7003;57106;51.446;-2.606;2023-11-21T04:32:20;6;6;
69350;PMS7003;57106;51.446;-2.606;2023-11-21T04:34:42;4;4;
69350;PMS7003;57106;51.446;-2.606;2023-11-21T04:37:07;4;4;
69350;PMS7003;57106;51.446;-2.606;2023-11-21T04:39:33;4;4;
69350;PMS7003;57106;51.446;-2.606;2023-11-21T04:42:01;5;4;
69350;PMS7003;57106;51.446;-2.606;2023-11-21T04:44:25;3;3;
69350;PMS7003;57106;51.446;-2.606;2023-11-21T04:46:50;3;3;
69350;PMS7003;57106;51.446;-2.606;2023-11-21T04:49:15;3;3;
69350;PMS7003;57106;51.446;-2.606;2023-11-21T05:06:15;3;3;
69350;PMS7003;57106;51.446;-2.606;2023-11-21T05:08:40;2;2;
69350;PMS7003;57106;51.446;-2.606;2023-11-21T05:11:05;2;2;
69350;PMS7003;57106;51.446;-2.606;2023-11-21T05:13:31;1;1;
69350;PMS7003;57106;51.446;-2.606;2023-11-21T05:15:56;2;2;
69350;PMS7003;57106;51.446;-2.606;2023-11-21T05:18:27;1;1;
69350;PMS7003;57106;51.446;-2.606;2023-11-21T05:20:48;2;2;
69350;PMS7003;57106;51.446;-2.606;2023-11-21T05:23:13;1;1;
69350;PMS7003;57106;51.446;-2.606;2023-11-21T05:25:40;1;1;
69350;PMS7003;57106;51.446;-2.606;2023-11-21T05:28:04;2;2;
69350;PMS7003;57106;51.446;-2.606;2023-11-21T05:30:30;0;0;
69350;PMS7003;57106;51.446;-2.606;2023-11-21T05:32:55;1;1;
69350;PMS7003;57106;51.446;-2.606;2023-11-21T05:35:21;1;1;
69350;PMS7003;57106;51.446;-2.606;2023-11-21T05:37:46;1;1;
69350;PMS7003;57106;51.446;-2.606;2023-11-21T05:40:12;0;0;
69350;PMS7003;57106;51.446;-2.606;2023-11-21T05:42:38;0;0;
69350;PMS7003;57106;51.446;-2.606;2023-11-21T05:59:37;0;0;
69350;PMS7003;57106;51.446;-2.606;2023-11-21T06:02:02;0;0;
69350;PMS7003;57106;51.446;-2.606;2023-11-21T06:04:28;0;0;
69350;PMS7003;57106;51.446;-2.606;2023-11-21T06:06:53;1;0;
69350;PMS7003;57106;51.446;-2.606;2023-11-21T06:09:19;0;0;
69350;PMS7003;57106;51.446;-2.606;2023-11-21T06:14:10;0;0;
69350;PMS7003;57106;51.446;-2.606;2023-11-21T06:16:35;0;0;
69350;PMS7003;57106;51.446;-2.606;2023-11-21T06:19:01;0;0;
69350;PMS7003;57106;51.446;-2.606;2023-11-21T06:21:27;0;0;
69350;PMS7003;57106;51.446;-2.606;2023-11-21T06:23:52;0;0;
69350;PMS7003;57106;51.446;-2.606;2023-11-21T06:26:22;0;0;
69350;PMS7003;57106;51.446;-2.606;2023-11-21T06:28:45;1;1;
69350;PMS7003;57106;51.446;-2.606;2023-11-21T06:33:35;1;1;
69350;PMS7003;57106;51.446;-2.606;2023-11-21T06:36:00;1;1;
69350;PMS7003;57106;51.446;-2.606;2023-11-21T06:38:26;0;0;
69350;PMS7003;57106;51.446;-2.606;2023-11-21T06:40:52;0;0;
69350;PMS7003;57106;51.446;-2.606;2023-11-21T06:43:17;1;0;
69350;PMS7003;57106;51.446;-2.606;2023-11-21T06:45:42;1;1;
69350;PMS7003;57106;51.446;-2.606;2023-11-21T06:50:33;0;0;
69350;PMS7003;57106;51.446;-2.606;2023-11-21T06:52:59;1;1;
69350;PMS7003;57106;51.446;-2.606;2023-11-21T06:55:25;1;1;
69350;PMS7003;57106;51.446;-2.606;2023-11-21T06:57:50;0;0;
69350;PMS7003;57106;51.446;-2.606;2023-11-21T07:00:17;1;1;
69350;PMS7003;57106;51.446;-2.606;2023-11-21T07:02:41;0;0;
69350;PMS7003;57106;51.446;-2.606;2023-11-21T07:05:07;0;0;
69350;PMS7003;57106;51.446;-2.606;2023-11-21T07:07:33;0;0;
69350;PMS7003;57106;51.446;-2.606;2023-11-21T07:44:02;0;0;
69350;PMS7003;57106;51.446;-2.606;2023-11-21T07:46:22;0;0;
69350;PMS7003;57106;51.446;-2.606;2023-11-21T07:48:48;0;0;
69350;PMS7003;57106;51.446;-2.606;2023-11-21T07:51:14;0;0;
69350;PMS7003;57106;51.446;-2.606;2023-11-21T07:53:39;0;0;
69350;PMS7003;57106;51.446;-2.606;2023-11-21T07:56:05;0;0;
69350;PMS7003;57106;51.446;-2.606;2023-11-21T07:58:30;0;0;
69350;PMS7003;57106;51.446;-2.606;2023-11-21T11:58:43;2;2;
69350;PMS7003;57106;51.446;-2.606;2023-11-21T12:01:07;2;2;
69350;PMS7003;57106;51.446;-2.606;2023-11-21T12:03:32;2;2;
69350;PMS7003;57106;51.446;-2.606;2023-11-21T12:05:58;2;2;
69350;PMS7003;57106;51.446;-2.606;2023-11-21T12:08:23;3;3;
69350;PMS7003;57106;51.446;-2.606;2023-11-21T12:10:49;1;1;
69350;PMS7003;57106;51.446;-2.606;2023-11-21T12:13:14;4;4;
69350;PMS7003;57106;51.446;-2.606;2023-11-21T12:15:40;2;2;
69350;PMS7003;57106;51.446;-2.606;2023-11-21T12:18:06;2;2;
69350;PMS7003;57106;51.446;-2.606;2023-11-21T12:20:38;2;2;
69350;PMS7003;57106;51.446;-2.606;2023-11-21T12:22:57;1;1;
69350;PMS7003;57106;51.446;-2.606;2023-11-21T12:59:20;2;2;
69350;PMS7003;57106;51.446;-2.606;2023-11-21T13:01:47;3;2;
69350;PMS7003;57106;51.446;-2.606;2023-11-21T13:04:11;2;2;
69350;PMS7003;57106;51.446;-2.606;2023-11-21T13:06:37;1;1;
69350;PMS7003;57106;51.446;-2.606;2023-11-21T13:09:02;1;1;
69350;PMS7003;57106;51.446;-2.606;2023-11-21T13:11:28;2;2;
69350;PMS7003;57106;51.446;-2.606;2023-11-21T13:16:19;3;3;
69350;PMS7003;57106;51.446;-2.606;2023-11-21T13:18:44;2;2;
69350;PMS7003;57106;51.446;-2.606;2023-11-21T13:21:10;3;3;
69350;PMS7003;57106;51.446;-2.606;2023-11-21T13:23:41;3;2;
69350;PMS7003;57106;51.446;-2.606;2023-11-21T13:26:01;2;2;
69350;PMS7003;57106;51.446;-2.606;2023-11-21T13:33:18;3;1;
69350;PMS7003;57106;51.446;-2.606;2023-11-21T13:35:43;1;1;
69350;PMS7003;57106;51.446;-2.606;2023-11-21T13:38:09;1;1;
69350;PMS7003;57106;51.446;-2.606;2023-11-21T13:40:34;2;2;
69350;PMS7003;57106;51.446;-2.606;2023-11-21T13:43:00;2;2;
69350;PMS7003;57106;51.446;-2.606;2023-11-21T13:45:27;2;2;
69350;PMS7003;57106;51.446;-2.606;2023-11-21T13:47:52;1;1;
69350;PMS7003;57106;51.446;-2.606;2023-11-21T14:00:00;0;0;
69350;PMS7003;57106;51.446;-2.606;2023-11-21T14:02:24;0;0;
69350;PMS7003;57106;51.446;-2.606;2023-11-21T14:04:50;1;1;
69350;PMS7003;57106;51.446;-2.606;2023-11-21T19:42:03;6;5;
69350;PMS7003;57106;51.446;-2.606;2023-11-21T19:44:30;5;5;
69350;PMS7003;57106;51.446;-2.606;2023-11-21T19:46:54;5;4;
69350;PMS7003;57106;51.446;-2.606;2023-11-21T19:49:19;5;4;
69350;PMS7003;57106;51.446;-2.606;2023-11-21T19:54:11;4;4;
69350;PMS7003;57106;51.446;-2.606;2023-11-21T19:59:02;3;3;
69350;PMS7003;57106;51.446;-2.606;2023-11-21T20:25:49;13;8;
69350;PMS7003;57106;51.446;-2.606;2023-11-21T20:33:01;8;7;
69350;PMS7003;57106;51.446;-2.606;2023-11-21T20:50:01;7;5;
69350;PMS7003;57106;51.446;-2.606;2023-11-21T21:11:50;8;7;
69350;PMS7003;57106;51.446;-2.606;2023-11-21T21:14:24;7;7;
69350;PMS7003;57106;51.446;-2.606;2023-11-21T21:16:42;6;6;
69350;PMS7003;57106;51.446;-2.606;2023-11-21T21:21:33;5;5;
69350;PMS7003;57106;51.446;-2.606;2023-11-21T21:23:58;7;6;
69350;PMS7003;57106;51.446;-2.606;2023-11-21T21:26:25;5;5;
69350;PMS7003;57106;51.446;-2.606;2023-11-21T21:28:49;5;5;
69350;PMS7003;57106;51.446;-2.606;2023-11-21T21:31:14;8;7;
69350;PMS7003;57106;51.446;-2.606;2023-11-21T21:33:45;6;6;
69350;PMS7003;57106;51.446;-2.606;2023-11-21T21:36:09;8;5;
69350;PMS7003;57106;51.446;-2.606;2023-11-21T21:38:33;7;7;
69350;PMS7003;57106;51.446;-2.606;2023-11-21T21:40:57;7;7;
69350;PMS7003;57106;51.446;-2.606;2023-11-21T21:43:23;7;5;
69350;PMS7003;57106;51.446;-2.606;2023-11-21T21:45:49;5;5;
69350;PMS7003;57106;51.446;-2.606;2023-11-21T21:48:15;6;5;
69350;PMS7003;57106;51.446;-2.606;2023-11-21T21:50:39;8;7;
69350;PMS7003;57106;51.446;-2.606;2023-11-21T21:53:05;8;7;
69350;PMS7003;57106;51.446;-2.606;2023-11-21T21:55:30;10;8;
69350;PMS7003;57106;51.446;-2.606;2023-11-21T21:57:58;11;9;
69350;PMS7003;57106;51.446;-2.606;2023-11-21T22:00:26;9;7;
69350;PMS7003;57106;51.446;-2.606;2023-11-21T22:02:47;6;6;
69350;PMS7003;57106;51.446;-2.606;2023-11-21T22:05:18;11;8;
69350;PMS7003;57106;51.446;-2.606;2023-11-21T22:07:38;7;6;
69350;PMS7003;57106;51.446;-2.606;2023-11-21T22:12:30;9;8;
69350;PMS7003;57106;51.446;-2.606;2023-11-21T22:14:56;8;8;
69350;PMS7003;57106;51.446;-2.606;2023-11-21T22:17:22;8;8;
69350;PMS7003;57106;51.446;-2.606;2023-11-21T22:51:20;9;9;
69350;PMS7003;57106;51.446;-2.606;2023-11-21T23:13:11;7;7;
69350;PMS7003;57106;51.446;-2.606;2023-11-21T23:15:35;7;7;
69350;PMS7003;57106;51.446;-2.606;2023-11-21T23:18:00;8;7;
69350;PMS7003;57106;51.446;-2.606;2023-11-21T23:20:26;9;8;
69350;PMS7003;57106;51.446;-2.606;2023-11-21T23:22:53;9;8;
69350;PMS7003;57106;51.446;-2.606;2023-11-21T23:25:18;10;9;
69350;PMS7003;57106;51.446;-2.606;2023-11-21T23:27:42;7;6;
69350;PMS7003;57106;51.446;-2.606;2023-11-21T23:30:15;12;10;
69350;PMS7003;57106;51.446;-2.606;2023-11-21T23:32:38;8;7;
69350;PMS7003;57106;51.446;-2.606;2023-11-21T23:37:30;9;9;
69350;PMS7003;57106;51.446;-2.606;2023-11-21T23:42:16;8;8;
69350;PMS7003;57106;51.446;-2.606;2023-11-21T23:47:14;8;8;
69350;PMS7003;57106;51.446;-2.606;2023-11-21T23:49:33;7;6;
69350;PMS7003;57106;51.446;-2.606;2023-11-21T23:54:29;8;7;
69350;PMS7003;57106;51.446;-2.606;2023-11-21T23:59:19;7;7;
